createdAt,value
2023-03-17T00:00:51.210Z,1.4
2023-03-17T00:01:51.563Z,1.4
2023-03-17T00:02:51.260Z,1.5
2023-03-17T00:03:51.233Z,1.5
2023-03-17T00:04:52.206Z,1.5
2023-03-17T00:05:51.343Z,1.4
2023-03-17T00:06:51.211Z,1.4
2023-03-17T00:07:51.205Z,1.4
2023-03-17T00:08:51.196Z,1.3
2023-03-17T00:09:51.229Z,1.3
2023-03-17T00:10:51.277Z,1.4
2023-03-17T00:11:51.195Z,1.4
2023-03-17T00:12:51.206Z,1.4
2023-03-17T00:13:51.207Z,1.5
2023-03-17T00:14:51.220Z,1.5
2023-03-17T00:15:51.267Z,1.5
2023-03-17T00:16:51.214Z,1.4
2023-03-17T00:17:51.216Z,1.3
2023-03-17T00:18:51.206Z,1.3
2023-03-17T00:19:51.234Z,1.5
2023-03-17T00:20:51.216Z,1.4
2023-03-17T00:21:51.209Z,1.3
2023-03-17T00:22:51.212Z,1.4
2023-03-17T00:23:51.189Z,1.4
2023-03-17T00:24:51.207Z,1.3
2023-03-17T00:25:51.233Z,1.4
2023-03-17T00:26:51.209Z,1.4
2023-03-17T00:27:51.214Z,1.4
2023-03-17T00:28:51.213Z,1.4
2023-03-17T00:29:51.189Z,1.4
2023-03-17T00:30:51.305Z,1.4
2023-03-17T00:31:51.274Z,1.4
2023-03-17T00:32:51.281Z,1.4
2023-03-17T00:33:51.212Z,1.5
2023-03-17T00:34:51.207Z,1.5
2023-03-17T00:35:51.269Z,1.4
2023-03-17T00:36:51.215Z,1.4
2023-03-17T00:37:51.197Z,1.5
2023-03-17T00:38:51.213Z,1.5
2023-03-17T00:39:51.202Z,1.4
2023-03-17T00:40:51.242Z,1.4
2023-03-17T00:41:51.189Z,1.4
2023-03-17T00:42:51.210Z,1.5
2023-03-17T00:43:51.200Z,1.5
2023-03-17T00:44:51.221Z,1.5
2023-03-17T00:45:51.210Z,1.3
2023-03-17T00:46:51.283Z,1.4
2023-03-17T00:47:51.203Z,1.3
2023-03-17T00:48:51.200Z,1.4
2023-03-17T00:49:51.208Z,1.3
2023-03-17T00:50:51.213Z,1.4
2023-03-17T00:51:51.190Z,1.4
2023-03-17T00:52:51.192Z,1.3
2023-03-17T00:53:51.207Z,1.3
2023-03-17T00:54:51.193Z,1.3
2023-03-17T00:55:51.276Z,1.3
2023-03-17T00:56:51.235Z,1.4
2023-03-17T00:57:51.197Z,1.4
2023-03-17T00:58:51.194Z,1.4
2023-03-17T00:59:51.180Z,1.3
2023-03-17T01:00:51.253Z,1.4
2023-03-17T01:01:51.307Z,1.3
2023-03-17T01:02:51.214Z,1.3
2023-03-17T01:03:51.228Z,1.3
2023-03-17T01:04:59.872Z,1.3
2023-03-17T01:05:51.219Z,1.4
2023-03-17T01:06:51.219Z,1.4
2023-03-17T01:07:51.199Z,1.3
2023-03-17T01:08:51.198Z,1.4
2023-03-17T01:09:51.207Z,1.4
2023-03-17T01:10:51.251Z,1.5
2023-03-17T01:11:51.241Z,1.5
2023-03-17T01:12:51.191Z,1.4
2023-03-17T01:13:51.206Z,1.3
2023-03-17T01:14:51.221Z,1.5
2023-03-17T01:15:51.195Z,1.4
2023-03-17T01:16:51.193Z,1.4
2023-03-17T01:17:51.202Z,1.5
2023-03-17T01:18:51.248Z,1.4
2023-03-17T01:19:51.188Z,1.3
2023-03-17T01:20:51.221Z,1.4
2023-03-17T01:21:51.210Z,1.4
2023-03-17T01:22:51.213Z,1.3
2023-03-17T01:23:51.200Z,1.4
2023-03-17T01:24:51.196Z,1.4
2023-03-17T01:25:51.242Z,1.3
2023-03-17T01:26:51.205Z,1.4
2023-03-17T01:27:51.206Z,1.3
2023-03-17T01:28:51.205Z,1.4
2023-03-17T01:29:51.200Z,1.5
2023-03-17T01:30:51.237Z,1.5
2023-03-17T01:31:51.276Z,1.4
2023-03-17T01:32:51.259Z,1.4
2023-03-17T01:33:51.194Z,1.3
2023-03-17T01:34:51.605Z,1.4
2023-03-17T01:35:51.314Z,1.4
2023-03-17T01:36:51.208Z,1.3
2023-03-17T01:37:51.189Z,1.4
2023-03-17T01:38:51.216Z,1.4
2023-03-17T01:39:51.200Z,1.3
2023-03-17T01:40:51.254Z,1.4
2023-03-17T01:41:51.184Z,1.5
2023-03-17T01:42:51.191Z,1.4
2023-03-17T01:43:51.189Z,1.4
2023-03-17T01:44:51.196Z,1.4
2023-03-17T01:45:51.407Z,1.4
2023-03-17T01:46:51.268Z,1.5
2023-03-17T01:47:51.189Z,1.4
2023-03-17T01:48:51.196Z,1.4
2023-03-17T01:49:51.183Z,1.3
2023-03-17T01:50:51.201Z,1.4
2023-03-17T01:51:51.187Z,1.3
2023-03-17T01:52:51.213Z,1.3
2023-03-17T01:53:51.230Z,1.3
2023-03-17T01:54:51.218Z,1.3
2023-03-17T01:55:51.254Z,1.4
2023-03-17T01:56:51.196Z,1.3
2023-03-17T01:57:51.217Z,1.3
2023-03-17T01:58:51.204Z,1.4
2023-03-17T01:59:51.192Z,1.4
2023-03-17T02:00:51.257Z,1.4
2023-03-17T02:01:51.185Z,1.3
2023-03-17T02:02:51.192Z,1.3
2023-03-17T02:03:51.242Z,1.4
2023-03-17T02:04:51.194Z,1.4
2023-03-17T02:05:51.214Z,1.5
2023-03-17T02:06:57.950Z,1.4
2023-03-17T02:07:51.183Z,1.5
2023-03-17T02:08:51.189Z,1.4
2023-03-17T02:09:51.199Z,1.3
2023-03-17T02:10:51.220Z,1.3
2023-03-17T02:11:51.206Z,1.4
2023-03-17T02:12:51.198Z,1.5
2023-03-17T02:13:51.181Z,1.4
2023-03-17T02:14:51.216Z,1.4
2023-03-17T02:15:51.215Z,1.4
2023-03-17T02:16:51.259Z,1.4
2023-03-17T02:17:51.197Z,1.4
2023-03-17T02:18:51.188Z,1.4
2023-03-17T02:19:51.190Z,1.3
2023-03-17T02:20:51.184Z,1.4
2023-03-17T02:21:51.221Z,1.4
2023-03-17T02:22:51.217Z,1.4
2023-03-17T02:23:51.189Z,1.4
2023-03-17T02:24:51.177Z,1.4
2023-03-17T02:25:51.207Z,1.4
2023-03-17T02:26:51.222Z,1.4
2023-03-17T02:27:51.189Z,1.3
2023-03-17T02:28:51.200Z,1.4
2023-03-17T02:29:51.183Z,1.4
2023-03-17T02:30:51.254Z,1.4
2023-03-17T02:31:51.178Z,1.4
2023-03-17T02:32:51.245Z,1.3
2023-03-17T02:33:51.201Z,1.3
2023-03-17T02:34:51.221Z,1.3
2023-03-17T02:35:51.265Z,1.3
2023-03-17T02:36:51.300Z,1.4
2023-03-17T02:37:51.189Z,1.4
2023-03-17T02:38:51.230Z,1.3
2023-03-17T02:39:51.197Z,1.3
2023-03-17T02:40:51.208Z,1.3
2023-03-17T02:41:51.212Z,1.3
2023-03-17T02:42:51.221Z,1.2
2023-03-17T02:43:51.190Z,1.3
2023-03-17T02:44:51.213Z,1.4
2023-03-17T02:45:51.229Z,1.3
2023-03-17T02:46:51.217Z,1.4
2023-03-17T02:47:51.196Z,1.3
2023-03-17T02:48:51.235Z,1.3
2023-03-17T02:49:51.201Z,1.4
2023-03-17T02:50:51.183Z,1.4
2023-03-17T02:51:51.229Z,1.4
2023-03-17T02:52:51.231Z,1.3
2023-03-17T02:53:51.212Z,1.3
2023-03-17T02:54:51.204Z,1.4
2023-03-17T02:55:51.246Z,1.3
2023-03-17T02:56:51.236Z,1.3
2023-03-17T02:57:51.199Z,1.3
2023-03-17T02:58:51.199Z,1.3
2023-03-17T02:59:51.207Z,1.3
2023-03-17T03:00:51.228Z,1.3
2023-03-17T03:01:51.210Z,1.4
2023-03-17T03:02:51.318Z,1.4
2023-03-17T03:03:51.234Z,1.3
2023-03-17T03:04:51.213Z,1.2
2023-03-17T03:05:51.233Z,1.3
2023-03-17T03:06:51.244Z,1.4
2023-03-17T03:07:51.211Z,1.4
2023-03-17T03:08:51.214Z,1.3
2023-03-17T03:09:51.219Z,1.2
2023-03-17T03:10:51.227Z,1.3
2023-03-17T03:11:51.233Z,1.3
2023-03-17T03:12:51.186Z,1.3
2023-03-17T03:13:51.196Z,1.3
2023-03-17T03:14:51.208Z,1.3
2023-03-17T03:15:51.242Z,1.3
2023-03-17T03:16:51.209Z,1.2
2023-03-17T03:17:51.199Z,1.2
2023-03-17T03:18:51.227Z,1.3
2023-03-17T03:19:51.199Z,1.2
2023-03-17T03:20:51.192Z,1.2
2023-03-17T03:21:51.188Z,1.2
2023-03-17T03:22:51.214Z,1.2
2023-03-17T03:23:51.214Z,1.3
2023-03-17T03:24:51.214Z,1.2
2023-03-17T03:25:51.201Z,1.3
2023-03-17T03:26:51.211Z,1.3
2023-03-17T03:27:51.204Z,1.2
2023-03-17T03:28:51.208Z,1.2
2023-03-17T03:29:51.198Z,1.1
2023-03-17T03:30:51.279Z,1.2
2023-03-17T03:31:51.191Z,1.1
2023-03-17T03:32:51.313Z,1.2
2023-03-17T03:33:51.199Z,1.2
2023-03-17T03:34:51.223Z,1.2
2023-03-17T03:35:51.274Z,1.2
2023-03-17T03:36:51.230Z,1.2
2023-03-17T03:37:51.225Z,1.2
2023-03-17T03:38:51.230Z,1.1
2023-03-17T03:39:51.198Z,1.2
2023-03-17T03:40:51.201Z,1.2
2023-03-17T03:41:51.234Z,1.2
2023-03-17T03:42:51.232Z,1.2
2023-03-17T03:43:51.223Z,1.1
2023-03-17T03:44:51.194Z,1.2
2023-03-17T03:45:51.205Z,1.2
2023-03-17T03:46:51.253Z,1.1
2023-03-17T03:47:51.192Z,1.1
2023-03-17T03:48:51.192Z,1.1
2023-03-17T03:49:51.184Z,1.2
2023-03-17T03:50:51.188Z,1.2
2023-03-17T03:51:51.192Z,1.1
2023-03-17T03:52:51.231Z,1.2
2023-03-17T03:53:51.179Z,1.2
2023-03-17T03:54:51.219Z,1
2023-03-17T03:55:51.188Z,1.1
2023-03-17T03:56:51.223Z,1.2
2023-03-17T03:57:51.256Z,1.1
2023-03-17T03:58:51.212Z,1.2
2023-03-17T03:59:51.193Z,1.2
2023-03-17T04:00:51.196Z,1
2023-03-17T04:01:51.179Z,1
2023-03-17T04:02:51.281Z,1.1
2023-03-17T04:03:51.186Z,1
2023-03-17T04:04:51.303Z,1
2023-03-17T04:05:51.193Z,1
2023-03-17T04:06:51.230Z,1
2023-03-17T04:07:51.192Z,1.1
2023-03-17T04:08:51.195Z,1.1
2023-03-17T04:09:51.225Z,1.1
2023-03-17T04:10:51.199Z,1
2023-03-17T04:11:51.196Z,1
2023-03-17T04:12:51.253Z,1
2023-03-17T04:13:51.187Z,1.1
2023-03-17T04:14:51.208Z,1.1
2023-03-17T04:15:51.386Z,1.2
2023-03-17T04:16:51.231Z,1.1
2023-03-17T04:17:51.184Z,1
2023-03-17T04:18:51.287Z,1
2023-03-17T04:19:51.194Z,1.1
2023-03-17T04:20:51.200Z,1.1
2023-03-17T04:21:53.533Z,1
2023-03-17T04:22:51.194Z,1.1
2023-03-17T04:23:51.181Z,1.1
2023-03-17T04:24:51.193Z,1.1
2023-03-17T04:25:51.188Z,1
2023-03-17T04:26:51.205Z,1
2023-03-17T04:27:51.197Z,1.1
2023-03-17T04:28:51.191Z,1.1
2023-03-17T04:29:51.194Z,1.1
2023-03-17T04:30:51.207Z,1
2023-03-17T04:31:51.269Z,1
2023-03-17T04:32:51.317Z,1.1
2023-03-17T04:33:51.228Z,0.9
2023-03-17T04:34:51.199Z,0.9
2023-03-17T04:35:51.286Z,1
2023-03-17T04:36:51.184Z,1
2023-03-17T04:37:51.192Z,1
2023-03-17T04:38:51.220Z,1
2023-03-17T04:39:51.183Z,1
2023-03-17T04:40:51.215Z,0.9
2023-03-17T04:41:51.198Z,1
2023-03-17T04:42:51.177Z,1.1
2023-03-17T04:43:51.200Z,1
2023-03-17T04:44:51.191Z,1
2023-03-17T04:45:51.252Z,1
2023-03-17T04:46:51.187Z,1
2023-03-17T04:47:51.204Z,0.8
2023-03-17T04:48:51.216Z,0.9
2023-03-17T04:49:51.182Z,0.9
2023-03-17T04:50:51.216Z,0.9
2023-03-17T04:51:51.201Z,0.9
2023-03-17T04:52:51.202Z,1
2023-03-17T04:53:51.190Z,1
2023-03-17T04:54:51.194Z,1
2023-03-17T04:55:51.186Z,1
2023-03-17T04:56:51.233Z,1
2023-03-17T04:57:51.188Z,1
2023-03-17T04:58:51.200Z,1.1
2023-03-17T04:59:51.264Z,1.1
2023-03-17T05:00:51.220Z,1
2023-03-17T05:01:51.323Z,1.1
2023-03-17T05:02:51.187Z,1
2023-03-17T05:03:51.180Z,1.1
2023-03-17T05:04:51.218Z,1
2023-03-17T05:05:51.205Z,1.1
2023-03-17T05:06:51.185Z,1
2023-03-17T05:07:51.196Z,1
2023-03-17T05:08:51.215Z,1
2023-03-17T05:09:51.208Z,0.9
2023-03-17T05:10:51.192Z,0.9
2023-03-17T05:11:51.237Z,0.9
2023-03-17T05:12:51.210Z,0.9
2023-03-17T05:13:51.184Z,0.9
2023-03-17T05:14:51.191Z,1
2023-03-17T05:15:51.185Z,1
2023-03-17T05:16:51.266Z,0.9
2023-03-17T05:17:51.187Z,0.9
2023-03-17T05:18:51.226Z,1
2023-03-17T05:19:51.174Z,1
2023-03-17T05:20:51.198Z,1
2023-03-17T05:21:51.188Z,1.1
2023-03-17T05:22:51.199Z,1.1
2023-03-17T05:23:53.318Z,1.1
2023-03-17T05:24:51.188Z,1
2023-03-17T05:25:51.208Z,1.1
2023-03-17T05:26:51.204Z,1
2023-03-17T05:27:51.182Z,1
2023-03-17T05:28:51.187Z,1
2023-03-17T05:29:51.182Z,1
2023-03-17T05:30:51.271Z,1
2023-03-17T05:31:51.188Z,1
2023-03-17T05:32:51.439Z,1.1
2023-03-17T05:33:51.199Z,1.1
2023-03-17T05:34:51.192Z,1.1
2023-03-17T05:35:51.316Z,1
2023-03-17T05:36:51.213Z,1
2023-03-17T05:37:51.198Z,1
2023-03-17T05:38:51.178Z,1
2023-03-17T05:39:51.182Z,1
2023-03-17T05:40:51.209Z,1.1
2023-03-17T05:41:51.198Z,1.1
2023-03-17T05:42:51.218Z,1
2023-03-17T05:43:51.186Z,1
2023-03-17T05:44:51.205Z,1
2023-03-17T05:45:51.321Z,1
2023-03-17T05:46:51.266Z,1
2023-03-17T05:47:51.207Z,1
2023-03-17T05:48:51.185Z,1
2023-03-17T05:49:51.201Z,1
2023-03-17T05:50:51.182Z,1
2023-03-17T05:51:51.196Z,0.9
2023-03-17T05:52:51.197Z,1
2023-03-17T05:53:51.174Z,1
2023-03-17T05:54:51.192Z,1
2023-03-17T05:55:51.192Z,1.1
2023-03-17T05:56:51.213Z,1
2023-03-17T05:57:51.201Z,1
2023-03-17T05:58:51.178Z,1
2023-03-17T05:59:51.192Z,0.9
2023-03-17T06:00:51.220Z,1
2023-03-17T06:01:51.211Z,1
2023-03-17T06:02:51.202Z,1
2023-03-17T06:03:51.259Z,1
2023-03-17T06:04:51.184Z,1.1
2023-03-17T06:05:51.194Z,0.9
2023-03-17T06:06:51.203Z,1.1
2023-03-17T06:07:55.734Z,1
2023-03-17T06:08:51.210Z,1
2023-03-17T06:09:51.184Z,1
2023-03-17T06:10:51.208Z,1.1
2023-03-17T06:11:51.237Z,1
2023-03-17T06:12:51.179Z,1.1
2023-03-17T06:13:51.223Z,1.1
2023-03-17T06:14:51.184Z,1
2023-03-17T06:15:51.224Z,1
2023-03-17T06:16:51.194Z,1.1
2023-03-17T06:17:51.183Z,1
2023-03-17T06:18:51.192Z,1.1
2023-03-17T06:19:51.180Z,1.1
2023-03-17T06:20:51.203Z,1.2
2023-03-17T06:21:51.206Z,1.3
2023-03-17T06:23:03.473Z,1.3
2023-03-17T06:23:51.191Z,1.2
2023-03-17T06:24:51.189Z,1.3
2023-03-17T06:25:51.194Z,1.3
2023-03-17T06:26:51.207Z,1.2
2023-03-17T06:27:51.196Z,1.3
2023-03-17T06:28:51.205Z,1.2
2023-03-17T06:29:51.187Z,1.1
2023-03-17T06:30:51.284Z,1.2
2023-03-17T06:31:51.307Z,1.2
2023-03-17T06:32:51.295Z,1.3
2023-03-17T06:33:51.188Z,1.2
2023-03-17T06:34:51.204Z,1.3
2023-03-17T06:35:51.228Z,1.3
2023-03-17T06:36:51.204Z,1.2
2023-03-17T06:37:51.203Z,1.4
2023-03-17T06:38:51.193Z,1.1
2023-03-17T06:39:51.205Z,1.3
2023-03-17T06:40:51.189Z,1.1
2023-03-17T06:41:51.246Z,1.2
2023-03-17T06:42:51.193Z,1.2
2023-03-17T06:43:51.197Z,1.4
2023-03-17T06:44:51.230Z,1.3
2023-03-17T06:45:51.209Z,1.3
2023-03-17T06:46:51.312Z,1.3
2023-03-17T06:47:51.202Z,1.4
2023-03-17T06:48:51.216Z,1.4
2023-03-17T06:49:51.203Z,1.3
2023-03-17T06:50:51.209Z,1.6
2023-03-17T06:51:51.224Z,1.7
2023-03-17T06:52:51.213Z,1.4
2023-03-17T06:53:51.193Z,1.4
2023-03-17T06:55:51.200Z,1.6
2023-03-17T06:56:51.244Z,1.2
2023-03-17T06:57:51.507Z,1.3
2023-03-17T06:58:51.182Z,1.3
2023-03-17T06:59:51.190Z,1.4
2023-03-17T07:00:51.184Z,1.2
2023-03-17T07:01:51.280Z,1.5
2023-03-17T07:02:51.198Z,1.3
2023-03-17T07:03:51.191Z,1.4
2023-03-17T07:04:51.229Z,1.3
2023-03-17T07:05:51.196Z,1.5
2023-03-17T07:06:51.197Z,1.4
2023-03-17T07:07:51.213Z,1.5
2023-03-17T07:08:51.199Z,1.5
2023-03-17T07:09:51.196Z,1.5
2023-03-17T07:10:51.203Z,1.7
2023-03-17T07:11:51.251Z,1.5
2023-03-17T07:12:51.207Z,1.6
2023-03-17T07:13:51.205Z,1.5
2023-03-17T07:14:51.186Z,1.3
2023-03-17T07:15:52.791Z,1.3
2023-03-17T07:16:51.241Z,1.5
2023-03-17T07:17:51.194Z,1.5
2023-03-17T07:18:51.208Z,1.7
2023-03-17T07:19:51.191Z,1.8
2023-03-17T07:20:51.266Z,1.9
2023-03-17T07:21:51.213Z,1.7
2023-03-17T07:22:51.201Z,1.7
2023-03-17T07:23:51.209Z,1.9
2023-03-17T07:24:51.233Z,1.6
2023-03-17T07:25:51.195Z,1.8
2023-03-17T07:26:51.287Z,1.8
2023-03-17T07:27:51.198Z,1.9
2023-03-17T07:28:51.190Z,1.7
2023-03-17T07:29:51.190Z,1.7
2023-03-17T07:30:51.267Z,1.7
2023-03-17T07:31:51.287Z,1.6
2023-03-17T07:32:51.281Z,1.6
2023-03-17T07:33:51.209Z,1.7
2023-03-17T07:34:51.185Z,1.9
2023-03-17T07:35:51.326Z,1.6
2023-03-17T07:36:51.210Z,1.6
2023-03-17T07:37:51.191Z,1.7
2023-03-17T07:38:51.211Z,1.5
2023-03-17T07:39:51.226Z,1.9
2023-03-17T07:40:51.192Z,1.8
2023-03-17T07:41:51.262Z,1.6
2023-03-17T07:42:51.197Z,1.7
2023-03-17T07:43:51.198Z,1.7
2023-03-17T07:44:51.231Z,1.7
2023-03-17T07:45:51.237Z,1.9
2023-03-17T07:46:51.236Z,2.3
2023-03-17T07:47:51.233Z,1.9
2023-03-17T07:48:51.205Z,1.8
2023-03-17T07:49:51.195Z,1.7
2023-03-17T07:50:51.313Z,1.7
2023-03-17T07:51:51.226Z,1.7
2023-03-17T07:52:51.201Z,2.3
2023-03-17T07:53:51.218Z,1.9
2023-03-17T07:54:51.224Z,1.9
2023-03-17T07:55:51.214Z,2.1
2023-03-17T07:56:51.217Z,1.7
2023-03-17T07:57:51.344Z,1.6
2023-03-17T07:58:51.196Z,1.7
2023-03-17T07:59:51.210Z,1.7
2023-03-17T08:00:51.218Z,1.7
2023-03-17T08:01:51.265Z,1.8
2023-03-17T08:03:06.875Z,1.9
2023-03-17T08:03:51.220Z,1.6
2023-03-17T08:04:51.201Z,1.7
2023-03-17T08:05:51.198Z,2
2023-03-17T08:06:51.198Z,1.9
2023-03-17T08:07:51.207Z,1.9
2023-03-17T08:08:51.191Z,1.7
2023-03-17T08:09:51.225Z,2
2023-03-17T08:10:51.237Z,2
2023-03-17T08:11:51.341Z,2.3
2023-03-17T08:12:51.220Z,2.2
2023-03-17T08:13:51.209Z,2.2
2023-03-17T08:14:51.237Z,2.2
2023-03-17T08:15:51.202Z,2.1
2023-03-17T08:16:51.335Z,1.8
2023-03-17T08:17:51.267Z,1.9
2023-03-17T08:18:51.207Z,2.1
2023-03-17T08:19:51.189Z,2.4
2023-03-17T08:20:51.213Z,2.4
2023-03-17T08:21:51.190Z,2.3
2023-03-17T08:22:51.224Z,2.2
2023-03-17T08:23:51.240Z,1.9
2023-03-17T08:24:51.206Z,1.9
2023-03-17T08:25:51.199Z,2.2
2023-03-17T08:26:51.265Z,2.2
2023-03-17T08:27:51.230Z,2.2
2023-03-17T08:28:51.212Z,2.3
2023-03-17T08:29:51.259Z,2.6
2023-03-17T08:30:51.320Z,2.5
2023-03-17T08:31:51.383Z,2.5
2023-03-17T08:32:51.306Z,2.3
2023-03-17T08:33:51.229Z,2.3
2023-03-17T08:34:51.207Z,2.1
2023-03-17T08:35:51.219Z,2.2
2023-03-17T08:36:51.202Z,2
2023-03-17T08:37:51.206Z,2.1
2023-03-17T08:38:51.221Z,1.9
2023-03-17T08:39:51.360Z,2.3
2023-03-17T08:40:51.223Z,2.3
2023-03-17T08:41:51.258Z,2.3
2023-03-17T08:42:51.204Z,2.6
2023-03-17T08:43:51.192Z,2.6
2023-03-17T08:44:51.202Z,2.4
2023-03-17T08:45:51.216Z,2.2
2023-03-17T08:46:51.213Z,2.4
2023-03-17T08:47:51.206Z,2.5
2023-03-17T08:48:51.344Z,2.5
2023-03-17T08:49:51.200Z,2.6
2023-03-17T08:50:51.225Z,2.4
2023-03-17T08:51:51.199Z,2
2023-03-17T08:52:51.221Z,2.3
2023-03-17T08:53:51.198Z,2.5
2023-03-17T08:54:51.203Z,2.3
2023-03-17T08:55:51.201Z,2.1
2023-03-17T08:56:51.227Z,2.3
2023-03-17T08:57:51.219Z,2.5
2023-03-17T08:58:51.213Z,2.2
2023-03-17T08:59:51.201Z,2.1
2023-03-17T09:00:51.212Z,2.1
2023-03-17T09:01:51.337Z,2.1
2023-03-17T09:02:51.292Z,2.5
2023-03-17T09:03:51.207Z,2.2
2023-03-17T09:04:51.199Z,2.1
2023-03-17T09:05:51.211Z,2.2
2023-03-17T09:07:02.835Z,2.4
2023-03-17T09:07:51.242Z,2.5
2023-03-17T09:08:51.219Z,2.9
2023-03-17T09:09:51.242Z,2.6
2023-03-17T09:10:51.202Z,2.6
2023-03-17T09:11:51.203Z,2.8
2023-03-17T09:12:51.197Z,2.5
2023-03-17T09:13:51.201Z,2.5
2023-03-17T09:14:51.225Z,2.8
2023-03-17T09:15:52.050Z,2.6
2023-03-17T09:16:51.234Z,2.9
2023-03-17T09:17:51.188Z,2.7
2023-03-17T09:18:51.207Z,2.6
2023-03-17T09:19:51.273Z,2.7
2023-03-17T09:20:51.230Z,2.7
2023-03-17T09:21:51.213Z,2.3
2023-03-17T09:22:51.221Z,2.7
2023-03-17T09:23:51.187Z,2.2
2023-03-17T09:24:51.220Z,2.3
2023-03-17T09:25:51.227Z,2
2023-03-17T09:26:51.208Z,2.1
2023-03-17T09:27:51.196Z,2.6
2023-03-17T09:28:51.219Z,2.6
2023-03-17T09:29:51.226Z,2.9
2023-03-17T09:30:51.266Z,3.2
2023-03-17T09:31:51.219Z,3.1
2023-03-17T09:32:51.275Z,3
2023-03-17T09:34:51.714Z,2.5
2023-03-17T09:35:51.284Z,2.7
2023-03-17T09:36:51.209Z,2.9
2023-03-17T09:37:51.231Z,2.9
2023-03-17T09:38:51.276Z,2.8
2023-03-17T09:39:51.233Z,2.7
2023-03-17T09:40:51.206Z,2.4
2023-03-17T09:41:51.223Z,2.3
2023-03-17T09:42:51.219Z,2.8
2023-03-17T09:43:51.211Z,3.2
2023-03-17T09:44:51.201Z,3.4
2023-03-17T09:45:51.218Z,3.2
2023-03-17T09:46:51.305Z,3.1
2023-03-17T09:47:51.211Z,2.6
2023-03-17T09:48:51.210Z,2.4
2023-03-17T09:49:51.210Z,2.7
2023-03-17T09:50:51.271Z,2.8
2023-03-17T09:51:51.216Z,3
2023-03-17T09:52:51.548Z,2.6
2023-03-17T09:53:51.216Z,2.3
2023-03-17T09:54:51.226Z,2.1
2023-03-17T09:55:51.216Z,2.2
2023-03-17T09:56:51.254Z,2.6
2023-03-17T09:57:51.237Z,2.5
2023-03-17T09:58:51.441Z,2.6
2023-03-17T09:59:51.248Z,2.4
2023-03-17T10:00:51.230Z,2.6
2023-03-17T10:01:51.226Z,2.8
2023-03-17T10:02:51.208Z,3.1
2023-03-17T10:03:51.199Z,2.6
2023-03-17T10:04:51.242Z,2.4
2023-03-17T10:05:51.298Z,2.3
2023-03-17T10:06:51.204Z,2.9
2023-03-17T10:07:51.217Z,3.1
2023-03-17T10:08:51.221Z,3.1
2023-03-17T10:09:51.236Z,3.4
2023-03-17T10:10:51.219Z,3.4
2023-03-17T10:11:51.211Z,3.7
2023-03-17T10:12:51.258Z,3.6
2023-03-17T10:13:51.212Z,3.3
2023-03-17T10:14:51.454Z,3.6
2023-03-17T10:15:51.260Z,3.5
2023-03-17T10:16:51.209Z,3.6
2023-03-17T10:17:51.212Z,3.8
2023-03-17T10:18:51.212Z,3.9
2023-03-17T10:19:51.204Z,3.5
2023-03-17T10:20:51.780Z,3.5
2023-03-17T10:21:51.229Z,3.9
2023-03-17T10:22:51.262Z,4
2023-03-17T10:23:51.203Z,3.7
2023-03-17T10:24:51.220Z,3.3
2023-03-17T10:25:51.210Z,3.2
2023-03-17T10:26:51.222Z,3.3
2023-03-17T10:27:51.228Z,3.1
2023-03-17T10:28:51.216Z,3
2023-03-17T10:29:51.216Z,3.1
2023-03-17T10:30:51.213Z,3.1
2023-03-17T10:31:51.369Z,3.5
2023-03-17T10:32:51.242Z,2.9
2023-03-17T10:33:51.227Z,3.3
2023-03-17T10:34:51.213Z,3.1
2023-03-17T10:35:51.231Z,3
2023-03-17T10:36:51.220Z,3
2023-03-17T10:37:58.897Z,3.3
2023-03-17T10:38:51.236Z,3.6
2023-03-17T10:39:51.259Z,3.4
2023-03-17T10:40:51.239Z,3.8
2023-03-17T10:41:51.209Z,3.3
2023-03-17T10:42:51.265Z,3.9
2023-03-17T10:43:51.210Z,3.9
2023-03-17T10:44:51.214Z,3.5
2023-03-17T10:45:51.219Z,2.9
2023-03-17T10:46:51.264Z,3.4
2023-03-17T10:47:51.222Z,3
2023-03-17T10:48:51.215Z,3
2023-03-17T10:49:51.208Z,2.9
2023-03-17T10:50:52.847Z,2.7
2023-03-17T10:51:51.214Z,3
2023-03-17T10:52:51.233Z,3.1
2023-03-17T10:53:51.216Z,3.3
2023-03-17T10:54:51.218Z,3.5
2023-03-17T10:55:51.480Z,3.7
2023-03-17T10:56:51.216Z,3.7
2023-03-17T10:57:51.209Z,3.5
2023-03-17T10:58:51.209Z,3.3
2023-03-17T10:59:51.216Z,3.3
2023-03-17T11:00:51.242Z,3.5
2023-03-17T11:01:51.215Z,3.6
2023-03-17T11:02:51.221Z,3.8
2023-03-17T11:03:51.304Z,3.6
2023-03-17T11:04:51.318Z,3.1
2023-03-17T11:05:51.220Z,3.1
2023-03-17T11:06:51.255Z,3.2
2023-03-17T11:07:51.220Z,3.3
2023-03-17T11:08:51.242Z,3.4
2023-03-17T11:09:51.239Z,3.5
2023-03-17T11:10:51.250Z,3.7
2023-03-17T11:11:51.229Z,3.9
2023-03-17T11:12:51.226Z,3.8
2023-03-17T11:13:51.214Z,4
2023-03-17T11:14:51.282Z,4
2023-03-17T11:15:51.220Z,3.2
2023-03-17T11:16:51.320Z,3.6
2023-03-17T11:17:51.213Z,3.5
2023-03-17T11:18:51.247Z,3.6
2023-03-17T11:19:51.235Z,3.6
2023-03-17T11:20:51.224Z,3.4
2023-03-17T11:21:51.234Z,3.1
2023-03-17T11:22:51.235Z,2.8
2023-03-17T11:23:51.247Z,3
2023-03-17T11:24:51.259Z,3.4
2023-03-17T11:25:51.226Z,3.3
2023-03-17T11:26:51.222Z,3.5
2023-03-17T11:27:51.222Z,3.3
2023-03-17T11:28:51.250Z,3.4
2023-03-17T11:29:51.282Z,3.3
2023-03-17T11:30:51.244Z,3.3
2023-03-17T11:31:51.291Z,3.4
2023-03-17T11:32:51.301Z,3.4
2023-03-17T11:33:51.225Z,3.6
2023-03-17T11:34:51.258Z,3.4
2023-03-17T11:35:51.238Z,3.4
2023-03-17T11:36:51.354Z,3.6
2023-03-17T11:37:51.226Z,3.9
2023-03-17T11:38:51.225Z,3.8
2023-03-17T11:39:51.227Z,3.9
2023-03-17T11:40:51.232Z,3.7
2023-03-17T11:41:51.248Z,3.7
2023-03-17T11:42:51.231Z,3.2
2023-03-17T11:43:51.233Z,3.2
2023-03-17T11:44:51.285Z,3.2
2023-03-17T11:45:51.275Z,3.4
2023-03-17T11:46:51.232Z,3.6
2023-03-17T11:47:51.220Z,3.8
2023-03-17T11:48:51.235Z,3.9
2023-03-17T11:49:51.250Z,3.5
2023-03-17T11:50:51.244Z,3.5
2023-03-17T11:51:51.223Z,3.5
2023-03-17T11:52:51.227Z,3.8
2023-03-17T11:53:51.224Z,3.9
2023-03-17T11:54:53.476Z,4
2023-03-17T11:55:51.225Z,3.6
2023-03-17T11:56:51.293Z,3.5
2023-03-17T11:57:51.236Z,3.8
2023-03-17T11:58:51.251Z,4.1
2023-03-17T11:59:51.258Z,3.9
2023-03-17T12:00:51.240Z,4.1
2023-03-17T12:01:51.232Z,4.3
2023-03-17T12:02:51.234Z,3.9
2023-03-17T12:03:51.403Z,3.9
2023-03-17T12:04:51.344Z,4.1
2023-03-17T12:05:51.265Z,3.8
2023-03-17T12:06:51.247Z,4.1
2023-03-17T12:07:51.219Z,4.6
2023-03-17T12:08:51.223Z,4.4
2023-03-17T12:09:51.226Z,4.3
2023-03-17T12:10:51.224Z,4.3
2023-03-17T12:11:51.235Z,4.5
2023-03-17T12:12:51.236Z,4.5
2023-03-17T12:13:51.227Z,3.8
2023-03-17T12:14:51.267Z,3.8
2023-03-17T12:15:51.305Z,4.2
2023-03-17T12:16:51.241Z,4.2
2023-03-17T12:17:51.232Z,4.1
2023-03-17T12:18:51.228Z,4.2
2023-03-17T12:19:51.241Z,4
2023-03-17T12:20:51.244Z,4.2
2023-03-17T12:21:51.223Z,3.6
2023-03-17T12:22:51.242Z,3.8
2023-03-17T12:23:51.297Z,4
2023-03-17T12:24:51.231Z,4.1
2023-03-17T12:25:51.250Z,4.1
2023-03-17T12:26:51.229Z,4.1
2023-03-17T12:28:51.236Z,3.5
2023-03-17T12:29:51.236Z,3.7
2023-03-17T12:30:51.247Z,3.8
2023-03-17T12:31:51.218Z,4
2023-03-17T12:32:51.274Z,4.2
2023-03-17T12:33:51.230Z,3.9
2023-03-17T12:34:51.229Z,3.7
2023-03-17T12:35:51.280Z,3.9
2023-03-17T12:36:51.251Z,3.9
2023-03-17T12:37:51.240Z,3.8
2023-03-17T12:38:51.282Z,4.2
2023-03-17T12:39:51.230Z,4.3
2023-03-17T12:40:51.244Z,4.1
2023-03-17T12:41:51.252Z,4
2023-03-17T12:42:51.242Z,3.7
2023-03-17T12:43:51.310Z,4
2023-03-17T12:44:51.236Z,3.9
2023-03-17T12:45:53.873Z,4
2023-03-17T12:46:51.267Z,3.8
2023-03-17T12:47:51.243Z,3.8
2023-03-17T12:48:51.229Z,3.9
2023-03-17T12:49:51.241Z,4
2023-03-17T12:50:51.256Z,4.2
2023-03-17T12:51:51.236Z,4
2023-03-17T12:52:51.240Z,3.9
2023-03-17T12:53:51.242Z,4.2
2023-03-17T12:54:51.259Z,3.9
2023-03-17T12:55:51.240Z,3.6
2023-03-17T12:56:51.251Z,4.1
2023-03-17T12:57:51.242Z,4.3
2023-03-17T12:58:51.241Z,4.2
2023-03-17T12:59:51.228Z,4.5
2023-03-17T13:00:51.254Z,4.3
2023-03-17T13:01:51.281Z,4
2023-03-17T13:02:51.283Z,3.8
2023-03-17T13:03:51.242Z,4
2023-03-17T13:04:51.246Z,3.9
2023-03-17T13:05:51.311Z,4.1
2023-03-17T13:06:51.247Z,4.4
2023-03-17T13:07:51.263Z,4.5
2023-03-17T13:08:51.234Z,4.7
2023-03-17T13:09:51.257Z,4.9
2023-03-17T13:10:51.253Z,4.5
2023-03-17T13:11:51.233Z,4.4
2023-03-17T13:12:51.237Z,4.4
2023-03-17T13:13:51.241Z,4.2
2023-03-17T13:14:51.241Z,3.8
2023-03-17T13:15:51.338Z,4.1
2023-03-17T13:16:51.255Z,4.2
2023-03-17T13:17:51.245Z,4.5
2023-03-17T13:18:51.253Z,4.4
2023-03-17T13:19:51.228Z,4.5
2023-03-17T13:20:51.242Z,4
2023-03-17T13:21:51.244Z,4.5
2023-03-17T13:22:51.229Z,4.6
2023-03-17T13:23:51.239Z,4.4
2023-03-17T13:24:51.287Z,4.7
2023-03-17T13:25:51.352Z,4.7
2023-03-17T13:26:53.670Z,4.8
2023-03-17T13:27:51.428Z,4
2023-03-17T13:28:51.504Z,4.5
2023-03-17T13:29:51.250Z,4.1
2023-03-17T13:30:51.260Z,4.2
2023-03-17T13:31:51.366Z,4.6
2023-03-17T13:32:51.321Z,4.2
2023-03-17T13:33:51.258Z,4.3
2023-03-17T13:34:51.246Z,4.2
2023-03-17T13:35:51.271Z,3.9
2023-03-17T13:36:51.267Z,4.3
2023-03-17T13:37:51.246Z,4.2
2023-03-17T13:39:05.018Z,4
2023-03-17T13:39:51.240Z,4.1
2023-03-17T13:40:51.258Z,4.4
2023-03-17T13:41:51.249Z,4.3
2023-03-17T13:42:51.267Z,4.3
2023-03-17T13:43:51.252Z,4.5
2023-03-17T13:44:51.260Z,4.7
2023-03-17T13:45:51.259Z,4.8
2023-03-17T13:46:51.301Z,4.7
2023-03-17T13:47:51.292Z,4.6
2023-03-17T13:48:51.250Z,4.4
2023-03-17T13:49:51.259Z,4.2
2023-03-17T13:50:51.238Z,4
2023-03-17T13:51:59.616Z,4.1
2023-03-17T13:52:51.251Z,3.9
2023-03-17T13:53:51.261Z,4.1
2023-03-17T13:54:51.291Z,4.3
2023-03-17T13:55:51.288Z,4.2
2023-03-17T13:56:51.469Z,4.3